Time;durP1;ratioP1;P1;durP2;ratioP2;P2;SDS_P1;SDS_P2;PMS_P1;PMS_P2;Temp;Humidity;BMP_temperature;BMP_pressure;BME280_temperature;BME280_humidity;BME280_pressure;Samples;Min_cycle;Max_cycle;Signal;HPM_P1;HPM_P2
2022/07/16 00:01:22;;;;;;;4.97;1.50;;;8.40;99.90;;;;;;5035101;28;20037;-67
2022/07/16 00:01:47;;;;;;;2.17;0.90;;;8.30;99.90;;;;;;5032954;28;20021;-66
2022/07/16 00:04:14;;;;;;;2.45;0.85;;;8.40;99.90;;;;;;5030708;28;20205;-66
2022/07/16 00:06:43;;;;;;;1.73;0.90;;;8.50;99.90;;;;;;5035854;28;20033;-66
2022/07/16 00:09:11;;;;;;;2.80;0.85;;;8.60;99.90;;;;;;5030173;28;20018;-67
2022/07/16 00:11:39;;;;;;;1.63;0.90;;;8.80;99.90;;;;;;5021648;28;20061;-66
2022/07/16 00:14:06;;;;;;;2.72;1.02;;;8.60;99.90;;;;;;5022606;28;20040;-68
2022/07/16 00:16:34;;;;;;;3.22;1.08;;;8.80;99.90;;;;;;5032439;28;20030;-67
2022/07/16 00:19:18;;;;;;;2.00;0.95;;;8.90;99.90;;;;;;5034274;28;20033;-68
2022/07/16 00:21:51;;;;;;;4.93;0.80;;;8.90;99.90;;;;;;5030004;28;20010;-68
2022/07/16 00:24:18;;;;;;;9.85;1.70;;;9.50;99.90;;;;;;5026981;28;20045;-68
2022/07/16 00:26:47;;;;;;;3.45;1.08;;;9.40;99.90;;;;;;5030805;28;20029;-68
2022/07/16 00:29:15;;;;;;;3.25;1.17;;;9.70;99.90;;;;;;5033576;28;20014;-68
2022/07/16 00:31:43;;;;;;;1.77;1.00;;;9.50;99.90;;;;;;5029454;28;20018;-68
2022/07/16 00:34:10;;;;;;;4.18;1.40;;;10.00;99.90;;;;;;5034741;28;20033;-68
2022/07/16 00:36:39;;;;;;;4.85;1.00;;;10.10;99.90;;;;;;5024457;28;20041;-68
2022/07/16 00:39:09;;;;;;;2.60;1.30;;;9.80;99.90;;;;;;5023778;28;20014;-68
2022/07/16 00:41:37;;;;;;;5.57;1.42;;;10.10;99.90;;;;;;5031226;28;20038;-68
2022/07/16 00:44:07;;;;;;;2.55;1.05;;;10.10;99.90;;;;;;5026471;28;20037;-68
2022/07/16 00:46:36;;;;;;;2.65;1.25;;;10.30;99.90;;;;;;5028902;28;20013;-68
2022/07/16 00:49:04;;;;;;;2.00;1.20;;;10.40;99.90;;;;;;5021902;28;20017;-67
2022/07/16 00:51:32;;;;;;;2.67;1.10;;;10.10;99.90;;;;;;5027382;28;20026;-67
2022/07/16 00:53:59;;;;;;;4.82;1.35;;;10.40;99.90;;;;;;5028236;28;20631;-68
2022/07/16 00:56:27;;;;;;;2.97;1.23;;;10.30;99.90;;;;;;5027386;28;20041;-67
2022/07/16 00:58:55;;;;;;;4.82;1.45;;;10.30;99.90;;;;;;5032251;28;20021;-68
2022/07/16 01:01:24;;;;;;;2.72;0.93;;;10.30;99.90;;;;;;5027911;28;20026;-67
2022/07/16 01:03:52;;;;;;;3.85;1.23;;;10.30;99.90;;;;;;5033351;28;20014;-68
2022/07/16 01:06:19;;;;;;;3.70;1.45;;;10.40;99.90;;;;;;5034432;28;20042;-67
2022/07/16 01:08:48;;;;;;;2.17;0.93;;;10.40;99.90;;;;;;5034151;28;20038;-68
2022/07/16 01:11:17;;;;;;;2.88;1.23;;;10.40;99.90;;;;;;5033023;28;20033;-68
2022/07/16 01:13:48;;;;;;;1.63;0.90;;;10.60;99.90;;;;;;5026515;28;20041;-68
2022/07/16 01:16:16;;;;;;;2.42;0.98;;;10.40;99.90;;;;;;5032930;28;20040;-69
2022/07/16 01:18:44;;;;;;;2.95;1.55;;;10.50;99.90;;;;;;5030562;28;20006;-68
2022/07/16 01:21:12;;;;;;;4.82;1.60;;;10.50;99.90;;;;;;5036390;28;20061;-69
2022/07/16 01:23:39;;;;;;;5.30;1.65;;;10.40;99.90;;;;;;5033514;28;20018;-68
2022/07/16 01:26:07;;;;;;;7.65;1.75;;;10.80;99.90;;;;;;5031149;28;20033;-66
2022/07/16 01:28:34;;;;;;;5.40;1.48;;;11.00;99.90;;;;;;5036754;28;20058;-67
2022/07/16 01:31:02;;;;;;;3.08;1.50;;;10.90;99.90;;;;;;5033888;28;20061;-66
2022/07/16 01:33:30;;;;;;;3.92;1.63;;;10.70;99.90;;;;;;5027743;28;20018;-67
2022/07/16 01:36:07;;;;;;;2.75;1.50;;;10.80;99.90;;;;;;5029188;28;20476;-67
2022/07/16 01:38:37;;;;;;;2.13;1.42;;;10.80;99.90;;;;;;5022171;28;20049;-67
2022/07/16 01:41:04;;;;;;;2.63;1.70;;;10.80;99.90;;;;;;5032923;28;20020;-66
2022/07/16 01:43:31;;;;;;;2.80;1.50;;;10.70;99.90;;;;;;5030860;28;20026;-67
2022/07/16 01:45:59;;;;;;;4.95;2.20;;;10.80;99.90;;;;;;5029619;28;20011;-67
2022/07/16 01:48:27;;;;;;;3.92;1.90;;;10.90;99.90;;;;;;5028031;28;20038;-68
2022/07/16 01:50:55;;;;;;;4.72;1.98;;;11.10;99.90;;;;;;5025146;28;20089;-68
2022/07/16 01:53:22;;;;;;;4.75;2.08;;;11.10;99.90;;;;;;5031589;28;20026;-67
2022/07/16 01:55:50;;;;;;;2.78;1.48;;;11.10;99.90;;;;;;5032313;28;20021;-68
2022/07/16 01:58:17;;;;;;;2.50;1.27;;;11.20;99.90;;;;;;5032106;28;20014;-68
2022/07/16 02:00:46;;;;;;;2.60;1.27;;;11.20;99.90;;;;;;5033251;28;20010;-68
2022/07/16 02:03:14;;;;;;;3.95;1.35;;;11.30;99.90;;;;;;5034939;28;20101;-67
2022/07/16 02:05:42;;;;;;;4.13;1.50;;;11.40;99.90;;;;;;5030107;28;20022;-68
2022/07/16 02:08:10;;;;;;;2.25;1.13;;;11.40;99.90;;;;;;5029482;28;20038;-67
2022/07/16 02:10:39;;;;;;;7.07;1.70;;;11.60;99.90;;;;;;5033788;28;20018;-67
2022/07/16 02:13:06;;;;;;;4.00;1.67;;;11.40;99.90;;;;;;5033935;28;20002;-67
2022/07/16 02:15:34;;;;;;;3.42;1.30;;;11.50;99.90;;;;;;5039410;28;20014;-67
2022/07/16 02:18:01;;;;;;;1.58;1.08;;;11.60;99.90;;;;;;5024090;28;20747;-67
2022/07/16 02:20:28;;;;;;;4.22;1.17;;;11.70;99.90;;;;;;5022022;28;20034;-67
2022/07/16 02:22:57;;;;;;;4.38;1.40;;;11.60;99.90;;;;;;5033813;28;20008;-68
2022/07/16 02:25:24;;;;;;;4.38;1.65;;;11.60;99.90;;;;;;5040641;28;20024;-67
2022/07/16 02:28:07;;;;;;;3.40;1.67;;;11.70;99.90;;;;;;5023752;28;20014;-67
2022/07/16 02:30:37;;;;;;;8.38;1.38;;;11.80;99.90;;;;;;5034184;28;20029;-67
2022/07/16 02:33:05;;;;;;;2.67;1.20;;;11.90;99.90;;;;;;5036279;28;20021;-67
2022/07/16 02:35:33;;;;;;;5.70;1.00;;;12.00;99.90;;;;;;5037498;28;20077;-68
2022/07/16 02:38:01;;;;;;;3.25;1.48;;;12.00;99.90;;;;;;5034711;28;20017;-67
2022/07/16 02:40:29;;;;;;;4.13;1.33;;;12.00;99.90;;;;;;5033503;28;20022;-68
2022/07/16 02:42:57;;;;;;;2.13;1.25;;;12.10;99.90;;;;;;5027438;28;20026;-67
2022/07/16 02:45:24;;;;;;;4.93;1.25;;;12.10;99.90;;;;;;5032691;28;20030;-67
2022/07/16 02:47:51;;;;;;;2.45;1.23;;;12.30;99.90;;;;;;5030496;28;20058;-68
2022/07/16 02:50:20;;;;;;;2.88;1.20;;;12.20;99.90;;;;;;5031921;28;20030;-68
2022/07/16 02:52:48;;;;;;;6.57;1.38;;;12.20;99.90;;;;;;5025160;28;20015;-68
2022/07/16 02:55:15;;;;;;;4.93;1.48;;;12.10;99.90;;;;;;5028468;28;20032;-68
2022/07/16 02:57:43;;;;;;;4.55;1.60;;;12.30;99.90;;;;;;5038042;28;20014;-66
2022/07/16 03:00:13;;;;;;;3.30;1.17;;;12.30;99.90;;;;;;5029738;28;20040;-68
2022/07/16 03:02:40;;;;;;;1.75;0.75;;;12.30;99.90;;;;;;5027106;28;20033;-68
2022/07/16 03:05:09;;;;;;;2.78;1.20;;;12.40;99.90;;;;;;5025314;28;20037;-68
2022/07/16 03:07:36;;;;;;;5.80;1.42;;;12.50;99.90;;;;;;5029430;28;20045;-67
2022/07/16 03:10:05;;;;;;;3.60;1.10;;;12.50;99.90;;;;;;5036752;28;20050;-68
2022/07/16 03:12:32;;;;;;;4.78;1.50;;;12.50;99.90;;;;;;5030370;28;20077;-68
2022/07/16 03:15:02;;;;;;;3.90;1.55;;;12.60;99.90;;;;;;5032269;28;20017;-67
2022/07/16 03:17:30;;;;;;;6.65;2.15;;;12.80;99.90;;;;;;5031791;28;20010;-67
2022/07/16 03:19:57;;;;;;;4.82;1.77;;;12.70;99.90;;;;;;5036254;28;20022;-67
2022/07/16 03:22:24;;;;;;;6.25;2.55;;;12.70;99.90;;;;;;5026579;28;20029;-67
2022/07/16 03:24:52;;;;;;;4.20;1.20;;;13.00;99.90;;;;;;5036086;28;20029;-68
2022/07/16 03:27:19;;;;;;;3.95;1.70;;;13.70;99.90;;;;;;5024940;28;20033;-68
2022/07/16 03:29:46;;;;;;;2.90;0.80;;;14.30;99.90;;;;;;5035116;28;20076;-68
2022/07/16 03:32:13;;;;;;;3.33;0.98;;;13.80;99.90;;;;;;5032988;28;20017;-68
2022/07/16 03:34:41;;;;;;;3.22;1.15;;;13.90;99.90;;;;;;5028818;28;20010;-69
2022/07/16 03:37:08;;;;;;;4.93;1.38;;;14.10;99.90;;;;;;5032257;28;20014;-68
2022/07/16 03:39:36;;;;;;;5.47;1.38;;;14.10;99.90;;;;;;5028657;28;20026;-68
2022/07/16 03:42:03;;;;;;;2.47;1.50;;;14.00;99.90;;;;;;5033885;28;20030;-67
2022/07/16 03:44:30;;;;;;;2.95;1.42;;;14.40;99.90;;;;;;5035048;28;20018;-68
2022/07/16 03:46:57;;;;;;;2.55;0.90;;;14.70;99.90;;;;;;5030450;28;20042;-68
2022/07/16 03:49:24;;;;;;;15.93;4.43;;;14.60;99.90;;;;;;5035398;28;20043;-68
2022/07/16 03:51:52;;;;;;;5.78;2.05;;;15.00;99.90;;;;;;5035033;28;20010;-68
2022/07/16 03:54:22;;;;;;;2.03;1.35;;;15.50;99.90;;;;;;5033100;28;20025;-69
2022/07/16 03:56:49;;;;;;;7.55;1.20;;;15.10;99.90;;;;;;5032023;28;20022;-66
2022/07/16 03:59:19;;;;;;;2.90;1.30;;;15.10;99.90;;;;;;5029214;28;20026;-66
2022/07/16 04:01:47;;;;;;;4.78;1.60;;;15.40;99.90;;;;;;5032608;28;20010;-67
2022/07/16 04:04:14;;;;;;;4.25;1.10;;;15.60;99.90;;;;;;5029556;28;20030;-69
2022/07/16 04:06:41;;;;;;;4.80;1.40;;;15.50;99.90;;;;;;5026955;28;20011;-69
2022/07/16 04:09:08;;;;;;;2.90;1.50;;;15.40;99.90;;;;;;5027422;28;20037;-69
2022/07/16 04:11:36;;;;;;;3.28;1.30;;;15.40;99.90;;;;;;5025143;28;20015;-68
2022/07/16 04:14:03;;;;;;;1.90;1.00;;;15.40;99.90;;;;;;5022413;28;20037;-68
2022/07/16 04:16:30;;;;;;;3.75;1.35;;;15.60;99.90;;;;;;5025054;28;20105;-68
2022/07/16 04:18:57;;;;;;;3.35;1.20;;;15.50;99.90;;;;;;5030462;28;20015;-69
2022/07/16 04:21:24;;;;;;;2.28;1.10;;;15.10;99.90;;;;;;5023109;28;20030;-70
2022/07/16 04:23:55;;;;;;;2.63;1.20;;;14.90;99.90;;;;;;5024953;28;20014;-69
2022/07/16 04:26:22;;;;;;;5.10;1.10;;;14.90;99.90;;;;;;5022621;28;20078;-69
2022/07/16 04:28:49;;;;;;;2.15;1.00;;;14.80;99.90;;;;;;5027242;28;20098;-69
2022/07/16 04:31:16;;;;;;;1.63;1.10;;;14.70;99.90;;;;;;5023960;28;20093;-69
2022/07/16 04:33:44;;;;;;;3.15;1.42;;;14.80;99.90;;;;;;5033406;28;20014;-69
2022/07/16 04:36:11;;;;;;;2.42;0.93;;;14.90;99.90;;;;;;5027410;28;20037;-68
2022/07/16 04:38:38;;;;;;;1.88;1.08;;;15.20;99.90;;;;;;5027336;28;20025;-69
2022/07/16 04:41:06;;;;;;;5.95;1.08;;;15.20;99.90;;;;;;5032667;28;20041;-69
2022/07/16 04:43:33;;;;;;;2.38;1.35;;;14.90;99.90;;;;;;5023601;28;20014;-70
2022/07/16 04:46:00;;;;;;;3.97;1.17;;;14.70;99.90;;;;;;5035032;28;20034;-68
2022/07/16 04:48:28;;;;;;;6.70;0.88;;;14.60;99.90;;;;;;5032550;28;20057;-68
2022/07/16 04:50:55;;;;;;;1.55;0.85;;;14.50;99.90;;;;;;5032763;28;20037;-69
2022/07/16 04:53:22;;;;;;;3.10;1.02;;;14.50;99.90;;;;;;5027095;28;20026;-69
2022/07/16 04:55:49;;;;;;;3.55;1.20;;;14.50;99.90;;;;;;5029363;28;20068;-69
2022/07/16 04:58:17;;;;;;;2.15;1.10;;;14.60;99.90;;;;;;5017373;28;20042;-69
2022/07/16 05:00:44;;;;;;;4.15;1.08;;;14.70;99.90;;;;;;5029997;28;20018;-69
2022/07/16 05:03:11;;;;;;;2.20;0.90;;;14.60;99.90;;;;;;5035784;28;20022;-69
2022/07/16 05:05:39;;;;;;;2.20;1.20;;;14.50;99.90;;;;;;5025184;28;20045;-69
2022/07/16 05:08:08;;;;;;;4.43;1.17;;;14.60;99.90;;;;;;5026839;28;20113;-67
2022/07/16 05:10:36;;;;;;;4.55;1.40;;;14.60;99.90;;;;;;5025960;28;20070;-67
2022/07/16 05:13:05;;;;;;;3.85;1.73;;;14.40;99.90;;;;;;5031435;28;20037;-68
2022/07/16 05:15:32;;;;;;;3.13;1.50;;;14.30;99.90;;;;;;5028523;28;20034;-68
2022/07/16 05:17:59;;;;;;;3.53;1.45;;;14.30;99.90;;;;;;5025683;28;20007;-67
2022/07/16 05:20:27;;;;;;;1.92;1.13;;;14.10;99.90;;;;;;5032147;28;20045;-67
2022/07/16 05:22:54;;;;;;;2.33;1.20;;;14.00;99.90;;;;;;5032781;28;20033;-68
2022/07/16 05:25:22;;;;;;;2.28;1.13;;;14.10;99.90;;;;;;5037082;28;20089;-67
2022/07/16 05:27:50;;;;;;;4.93;1.65;;;14.00;99.90;;;;;;5034868;28;20023;-66
2022/07/16 05:30:17;;;;;;;4.88;2.25;;;14.10;99.90;;;;;;5039010;28;20037;-67
2022/07/16 05:32:45;;;;;;;4.22;2.72;;;13.90;99.90;;;;;;5038881;28;20037;-67
2022/07/16 05:35:14;;;;;;;4.47;2.05;;;13.90;99.90;;;;;;5036262;28;20029;-68
2022/07/16 05:37:44;;;;;;;4.28;1.83;;;13.90;99.90;;;;;;5024445;28;20030;-67
2022/07/16 05:40:13;;;;;;;3.92;2.03;;;13.90;99.90;;;;;;5038537;28;20029;-67
2022/07/16 05:42:41;;;;;;;2.85;1.70;;;13.80;99.90;;;;;;5036546;28;20030;-67
2022/07/16 05:45:09;;;;;;;2.63;1.70;;;13.70;99.90;;;;;;5038486;28;20117;-67
2022/07/16 05:47:36;;;;;;;2.60;1.90;;;13.60;99.90;;;;;;5023789;28;20069;-67
2022/07/16 05:50:05;;;;;;;3.95;1.50;;;13.60;99.90;;;;;;5029505;28;20022;-67
2022/07/16 05:52:33;;;;;;;6.80;2.65;;;13.60;99.90;;;;;;5028914;28;20055;-68
2022/07/16 05:55:00;;;;;;;3.65;2.17;;;13.50;99.90;;;;;;5034827;28;20032;-67
2022/07/16 05:57:27;;;;;;;3.40;1.98;;;13.50;99.90;;;;;;5029177;28;20029;-67
2022/07/16 05:59:55;;;;;;;4.85;2.33;;;13.40;99.90;;;;;;5025599;28;20058;-68
2022/07/16 06:02:22;;;;;;;4.72;2.13;;;13.30;99.90;;;;;;5024142;28;20034;-68
2022/07/16 06:04:49;;;;;;;4.03;2.13;;;13.30;99.90;;;;;;5033591;28;20029;-68
2022/07/16 06:07:16;;;;;;;3.60;1.92;;;13.30;99.90;;;;;;5024293;28;20078;-67
2022/07/16 06:09:44;;;;;;;4.25;1.92;;;13.30;99.90;;;;;;5030076;28;20041;-67
2022/07/16 06:12:11;;;;;;;5.55;2.10;;;13.20;99.90;;;;;;5018113;28;20088;-68
2022/07/16 06:14:38;;;;;;;3.33;1.58;;;13.20;99.90;;;;;;5028546;28;20026;-68
2022/07/16 06:17:06;;;;;;;4.75;1.63;;;13.10;99.90;;;;;;5016725;28;20032;-68
2022/07/16 06:19:33;;;;;;;4.35;2.03;;;13.00;99.90;;;;;;5025650;28;20022;-67
2022/07/16 06:22:00;;;;;;;4.15;1.55;;;13.00;99.90;;;;;;5028572;28;20026;-68
2022/07/16 06:24:28;;;;;;;4.57;1.85;;;13.00;99.90;;;;;;5030980;28;20056;-69
2022/07/16 06:26:55;;;;;;;3.05;1.58;;;13.00;99.90;;;;;;5021263;28;20022;-68
2022/07/16 06:29:22;;;;;;;4.47;1.80;;;13.00;99.90;;;;;;5031398;28;20036;-67
2022/07/16 06:31:50;;;;;;;4.15;1.35;;;12.90;99.90;;;;;;5024172;28;20050;-67
2022/07/16 06:34:17;;;;;;;5.97;2.58;;;12.90;99.90;;;;;;5018825;28;20029;-68
2022/07/16 06:36:44;;;;;;;3.65;2.40;;;12.90;99.90;;;;;;5019648;28;20053;-68
2022/07/16 06:39:12;;;;;;;4.22;2.72;;;12.90;99.90;;;;;;5030580;28;20054;-68
2022/07/16 06:41:39;;;;;;;7.38;5.57;;;12.80;99.90;;;;;;5023155;28;20038;-68
2022/07/16 06:44:09;;;;;;;10.15;5.93;;;12.80;99.90;;;;;;5017550;28;20015;-68
2022/07/16 06:46:37;;;;;;;9.02;5.43;;;12.80;99.90;;;;;;5023299;28;20069;-68
2022/07/16 06:49:04;;;;;;;6.88;4.88;;;12.80;99.90;;;;;;5030562;28;20033;-69
2022/07/16 06:51:32;;;;;;;7.78;4.22;;;12.70;99.90;;;;;;5030027;28;20037;-69
2022/07/16 06:53:59;;;;;;;6.68;3.15;;;12.70;99.90;;;;;;5029701;28;20050;-70
2022/07/16 06:56:26;;;;;;;8.27;3.78;;;12.60;99.90;;;;;;5026890;28;20014;-69
2022/07/16 06:58:53;;;;;;;7.03;3.13;;;12.60;99.90;;;;;;5029684;28;20136;-69
2022/07/16 07:01:21;;;;;;;6.72;3.70;;;12.60;99.90;;;;;;5031043;28;20153;-70
2022/07/16 07:03:48;;;;;;;4.68;2.60;;;12.60;99.90;;;;;;5030447;28;20022;-70
2022/07/16 07:06:15;;;;;;;7.65;2.38;;;12.60;99.90;;;;;;5026743;28;20010;-70
2022/07/16 07:08:43;;;;;;;5.78;2.15;;;12.60;99.90;;;;;;5030711;28;20076;-70
2022/07/16 07:11:11;;;;;;;8.38;2.72;;;12.50;99.90;;;;;;5028787;28;20041;-70
2022/07/16 07:13:38;;;;;;;3.72;1.65;;;12.50;99.90;;;;;;5030231;28;20045;-70
2022/07/16 07:16:06;;;;;;;5.80;2.22;;;12.50;99.90;;;;;;5035789;28;20010;-70
2022/07/16 07:18:34;;;;;;;4.75;2.33;;;12.50;99.90;;;;;;5025844;28;20014;-69
2022/07/16 07:21:01;;;;;;;3.10;1.55;;;12.50;99.90;;;;;;5036064;28;20108;-70
2022/07/16 07:23:29;;;;;;;3.30;1.60;;;12.40;99.90;;;;;;5035039;28;20033;-70
2022/07/16 07:25:57;;;;;;;4.05;1.48;;;12.40;99.90;;;;;;5027736;28;20053;-69
2022/07/16 07:28:24;;;;;;;4.30;2.08;;;12.40;99.90;;;;;;5027753;28;20085;-70
2022/07/16 07:30:51;;;;;;;4.25;2.08;;;12.30;99.90;;;;;;5019576;28;20054;-70
2022/07/16 07:33:18;;;;;;;3.40;1.52;;;12.30;99.90;;;;;;5016403;28;20022;-70
2022/07/16 07:35:46;;;;;;;3.20;1.73;;;12.30;99.90;;;;;;5033726;28;20026;-71
2022/07/16 07:38:13;;;;;;;3.75;1.90;;;12.30;99.90;;;;;;5029629;28;20022;-70
2022/07/16 07:40:40;;;;;;;3.22;1.73;;;12.30;99.90;;;;;;5030617;28;20022;-70
2022/07/16 07:43:08;;;;;;;6.20;2.20;;;12.20;99.90;;;;;;5029409;28;20117;-70
2022/07/16 07:45:35;;;;;;;6.00;2.38;;;12.20;99.90;;;;;;5031885;28;20090;-70
2022/07/16 07:48:02;;;;;;;5.53;3.30;;;12.20;99.90;;;;;;5021831;28;20045;-70
2022/07/16 07:50:29;;;;;;;6.80;2.28;;;12.20;99.90;;;;;;5022424;28;20022;-71
2022/07/16 07:52:57;;;;;;;4.45;2.47;;;12.20;99.90;;;;;;5023339;28;20034;-70
2022/07/16 07:55:24;;;;;;;4.78;2.80;;;12.20;99.90;;;;;;5032163;28;20033;-71
2022/07/16 07:57:51;;;;;;;6.32;2.95;;;12.20;99.90;;;;;;5022731;28;20034;-71
2022/07/16 08:00:19;;;;;;;10.23;4.20;;;12.20;99.90;;;;;;5024483;28;20021;-70
2022/07/16 08:02:47;;;;;;;7.35;3.28;;;12.20;99.90;;;;;;5027522;28;20040;-70
2022/07/16 08:05:14;;;;;;;9.70;3.22;;;12.20;99.90;;;;;;5031688;28;20152;-71
2022/07/16 08:07:43;;;;;;;6.20;3.42;;;12.20;99.90;;;;;;5026352;28;20025;-70
2022/07/16 08:10:10;;;;;;;5.05;3.00;;;12.20;99.90;;;;;;5034606;28;20030;-69
2022/07/16 08:12:38;;;;;;;4.60;2.60;;;12.30;99.90;;;;;;5030889;28;20045;-70
2022/07/16 08:15:07;;;;;;;4.65;2.47;;;12.70;99.90;;;;;;5036564;28;20030;-70
2022/07/16 08:17:34;;;;;;;10.20;3.03;;;12.80;99.90;;;;;;5035086;28;20021;-70
2022/07/16 08:20:01;;;;;;;4.25;2.60;;;12.80;99.90;;;;;;5025769;28;20049;-69
2022/07/16 08:22:29;;;;;;;4.28;2.67;;;12.90;99.90;;;;;;5026130;28;20033;-69
2022/07/16 08:27:41;;;;;;;5.80;2.75;;;13.30;99.90;;;;;;5032956;28;20017;-70
2022/07/16 08:30:09;;;;;;;8.48;4.18;;;13.30;99.90;;;;;;5028912;28;20030;-69
2022/07/16 08:32:36;;;;;;;6.93;3.50;;;13.40;99.90;;;;;;5030104;28;20105;-68
2022/07/16 08:35:05;;;;;;;5.25;3.47;;;13.30;99.90;;;;;;5026624;28;20052;-69
2022/07/16 08:37:38;;;;;;;6.90;3.55;;;13.10;99.90;;;;;;5013071;28;20483;-70
2022/07/16 08:40:07;;;;;;;6.78;3.05;;;12.90;99.90;;;;;;5026642;28;20030;-69
2022/07/16 08:42:36;;;;;;;5.38;3.45;;;13.00;99.90;;;;;;5022789;28;20022;-70
2022/07/16 08:45:06;;;;;;;6.55;3.55;;;13.10;99.90;;;;;;5026542;28;20026;-70
2022/07/16 08:47:35;;;;;;;5.10;3.63;;;13.00;99.90;;;;;;5031414;28;20038;-69
2022/07/16 08:50:05;;;;;;;6.63;3.65;;;12.90;99.90;;;;;;5029293;28;20395;-70
2022/07/16 08:52:34;;;;;;;7.60;3.60;;;12.80;99.90;;;;;;5027252;28;20097;-70
2022/07/16 08:55:02;;;;;;;8.02;4.05;;;12.70;99.90;;;;;;5025598;28;20026;-70
2022/07/16 08:57:31;;;;;;;5.43;4.38;;;12.70;99.90;;;;;;5027107;28;20449;-70
2022/07/16 08:59:58;;;;;;;7.43;3.92;;;12.70;99.90;;;;;;5015886;28;20037;-70
2022/07/16 09:02:25;;;;;;;9.77;4.55;;;12.60;99.90;;;;;;5024277;28;20026;-71
2022/07/16 09:04:53;;;;;;;9.65;5.57;;;12.50;99.90;;;;;;5020088;28;20049;-70
2022/07/16 09:07:21;;;;;;;7.75;5.05;;;12.50;99.90;;;;;;5015062;28;20030;-70
2022/07/16 09:09:48;;;;;;;6.85;4.68;;;12.40;99.90;;;;;;5024850;28;20034;-69
2022/07/16 09:12:37;;;;;;;6.85;3.53;;;12.40;99.90;;;;;;5023137;28;20017;-69
2022/07/16 09:15:37;;;;;;;6.22;4.40;;;12.40;99.90;;;;;;5024857;28;20025;-69
2022/07/16 09:18:17;;;;;;;8.10;4.00;;;12.50;99.90;;;;;;5003845;28;20038;-69
2022/07/16 09:20:46;;;;;;;6.75;4.00;;;12.50;99.90;;;;;;5026299;28;20057;-69
2022/07/16 09:23:19;;;;;;;8.02;4.22;;;12.60;99.90;;;;;;5028741;28;20038;-69
2022/07/16 09:25:55;;;;;;;6.97;4.10;;;12.60;99.90;;;;;;5027523;28;20045;-69
2022/07/16 09:28:24;;;;;;;8.27;3.95;;;12.80;99.90;;;;;;5023406;28;20046;-69
2022/07/16 09:30:51;;;;;;;8.57;4.82;;;12.90;99.90;;;;;;5024930;28;20034;-69
2022/07/16 09:33:21;;;;;;;5.80;3.97;;;12.90;99.90;;;;;;5025919;28;20026;-68
2022/07/16 09:36:04;;;;;;;5.60;3.88;;;13.10;99.90;;;;;;5033829;28;20036;-69
2022/07/16 09:38:49;;;;;;;6.68;4.72;;;13.00;99.90;;;;;;5032322;28;20022;-68
2022/07/16 09:41:18;;;;;;;3.60;2.25;;;13.00;99.90;;;;;;5037480;28;20032;-69
2022/07/16 09:43:46;;;;;;;4.10;1.30;;;13.10;99.90;;;;;;5036437;28;20022;-68
2022/07/16 09:46:18;;;;;;;3.60;1.33;;;13.30;99.90;;;;;;5026463;28;20015;-68
2022/07/16 09:48:47;;;;;;;3.85;1.25;;;13.40;99.90;;;;;;5022516;28;20039;-68
2022/07/16 09:51:15;;;;;;;1.77;0.75;;;13.50;99.90;;;;;;5034786;28;20100;-68
2022/07/16 09:53:43;;;;;;;4.70;1.52;;;13.70;99.90;;;;;;5032175;28;20080;-68
2022/07/16 09:56:24;;;;;;;2.63;0.80;;;13.80;99.90;;;;;;5025338;28;20074;-69
2022/07/16 09:58:56;;;;;;;2.05;1.00;;;13.80;99.90;;;;;;5031792;28;20025;-69
2022/07/16 10:01:24;;;;;;;1.95;0.77;;;13.90;99.90;;;;;;5031028;28;20037;-68
2022/07/16 10:03:52;;;;;;;1.38;0.70;;;13.80;99.90;;;;;;5036384;28;20074;-68
2022/07/16 10:06:20;;;;;;;2.75;1.27;;;13.90;99.90;;;;;;5025625;28;20018;-69
2022/07/16 10:08:47;;;;;;;1.77;0.80;;;13.80;99.90;;;;;;5019022;28;20043;-68
2022/07/16 10:11:15;;;;;;;1.98;0.80;;;13.90;99.90;;;;;;5031201;28;20033;-69
2022/07/16 10:13:44;;;;;;;0.98;0.60;;;13.90;99.90;;;;;;5020878;28;20030;-68
2022/07/16 10:16:13;;;;;;;1.65;0.68;;;14.00;99.60;;;;;;5026641;28;20010;-68
2022/07/16 10:18:47;;;;;;;1.25;0.55;;;14.00;99.30;;;;;;5040464;28;20032;-69
2022/07/16 10:21:16;;;;;;;1.65;0.60;;;14.20;98.40;;;;;;5040484;28;20014;-68
2022/07/16 10:24:03;;;;;;;1.17;0.50;;;14.20;98.20;;;;;;5032459;28;20026;-68
2022/07/16 10:26:32;;;;;;;0.63;0.40;;;14.20;97.80;;;;;;5024043;28;20014;-67
2022/07/16 10:29:00;;;;;;;0.90;0.40;;;14.20;97.80;;;;;;5023878;28;20015;-67
2022/07/16 10:34:37;;;;;;;4.05;0.32;;;14.30;97.70;;;;;;5037764;28;20094;-67
2022/07/16 10:37:25;;;;;;;3.25;1.65;;;14.30;97.80;;;;;;5034430;28;20018;-68
2022/07/16 10:40:06;;;;;;;0.98;0.43;;;14.20;97.60;;;;;;5027166;28;20037;-68
2022/07/16 10:42:34;;;;;;;0.70;0.30;;;14.20;97.70;;;;;;5026801;28;20022;-68
2022/07/16 10:45:02;;;;;;;0.77;0.32;;;14.20;97.50;;;;;;5038253;28;20033;-68
2022/07/16 10:47:47;;;;;;;1.25;0.38;;;14.20;97.90;;;;;;5027698;28;20038;-68
2022/07/16 10:50:19;;;;;;;1.48;0.47;;;14.10;98.30;;;;;;5037196;28;20018;-68
2022/07/16 10:52:49;;;;;;;2.03;0.40;;;14.00;98.40;;;;;;5024174;28;20027;-69
2022/07/16 10:55:35;;;;;;;1.23;0.47;;;13.90;98.40;;;;;;5020038;28;20027;-68
2022/07/16 10:58:03;;;;;;;1.92;0.50;;;14.00;98.50;;;;;;5027936;28;20013;-68
2022/07/16 11:00:30;;;;;;;1.10;0.40;;;13.90;98.70;;;;;;5030847;28;20050;-68
2022/07/16 11:03:02;;;;;;;1.30;0.52;;;13.90;98.80;;;;;;5022698;28;20044;-68
2022/07/16 11:05:31;;;;;;;1.30;0.50;;;13.80;98.90;;;;;;5030969;28;20045;-68
2022/07/16 11:08:10;;;;;;;1.40;0.32;;;13.80;99.20;;;;;;5038900;28;20045;-68
2022/07/16 11:10:39;;;;;;;2.97;0.50;;;13.80;99.10;;;;;;5035029;28;20074;-68
2022/07/16 11:13:17;;;;;;;1.08;0.40;;;13.80;99.30;;;;;;5030293;28;20010;-68
2022/07/16 11:15:45;;;;;;;1.52;0.50;;;13.70;99.50;;;;;;5015332;28;20553;-68
2022/07/16 11:18:18;;;;;;;1.15;0.50;;;13.60;99.60;;;;;;5025203;28;20038;-68
2022/07/16 11:20:46;;;;;;;2.00;0.63;;;13.60;99.80;;;;;;5034834;28;20037;-69
2022/07/16 11:23:14;;;;;;;1.58;0.50;;;13.60;99.90;;;;;;5029708;28;20030;-68
2022/07/16 11:25:55;;;;;;;4.32;0.60;;;13.50;99.90;;;;;;5036942;28;20026;-68
2022/07/16 11:28:22;;;;;;;1.08;0.50;;;13.40;99.90;;;;;;5026037;28;20048;-68
2022/07/16 11:31:04;;;;;;;0.77;0.50;;;13.30;99.90;;;;;;5027997;28;20014;-68
2022/07/16 11:33:33;;;;;;;1.38;0.68;;;13.30;99.90;;;;;;5030431;28;20054;-68
2022/07/16 11:36:13;;;;;;;3.15;0.50;;;13.30;99.90;;;;;;5027900;28;21091;-68
2022/07/16 11:38:40;;;;;;;0.93;0.50;;;13.20;99.90;;;;;;5024501;28;20053;-68
2022/07/16 11:41:09;;;;;;;1.10;0.60;;;13.20;99.90;;;;;;5025482;28;20017;-68
2022/07/16 11:43:36;;;;;;;1.10;0.60;;;13.10;99.90;;;;;;5023460;28;20030;-68
2022/07/16 11:46:04;;;;;;;1.20;0.73;;;13.10;99.90;;;;;;5033929;28;20085;-68
2022/07/16 11:48:38;;;;;;;1.20;0.77;;;13.10;99.90;;;;;;5033952;28;20044;-68
2022/07/16 11:51:09;;;;;;;1.23;0.60;;;13.10;99.90;;;;;;5031992;28;20026;-68
2022/07/16 11:53:37;;;;;;;0.88;0.50;;;13.10;99.90;;;;;;5030832;28;20030;-68
2022/07/16 11:56:06;;;;;;;1.35;0.68;;;13.10;99.90;;;;;;5032664;28;20084;-69
2022/07/16 11:58:34;;;;;;;1.40;0.70;;;13.10;99.90;;;;;;5031375;28;20037;-68
2022/07/16 12:01:01;;;;;;;1.15;0.60;;;13.00;99.90;;;;;;5032028;28;20010;-67
2022/07/16 12:03:28;;;;;;;1.75;0.43;;;12.90;99.90;;;;;;5030678;28;20081;-68
2022/07/16 12:06:03;;;;;;;1.55;0.50;;;12.90;99.90;;;;;;5035056;28;20045;-68
2022/07/16 12:08:32;;;;;;;1.15;0.50;;;12.80;99.90;;;;;;5035677;28;20033;-68
2022/07/16 12:11:06;;;;;;;1.38;0.70;;;12.80;99.90;;;;;;5032956;28;20030;-68
2022/07/16 12:13:39;;;;;;;1.75;0.80;;;12.80;99.90;;;;;;5034492;28;20010;-67
2022/07/16 12:16:09;;;;;;;1.77;0.80;;;12.70;99.90;;;;;;5027419;28;20166;-68
2022/07/16 12:18:36;;;;;;;1.30;0.65;;;12.70;99.90;;;;;;5027029;28;20037;-68
2022/07/16 12:21:26;;;;;;;3.67;0.77;;;12.60;99.90;;;;;;5037259;28;20010;-68
2022/07/16 12:23:53;;;;;;;1.10;0.55;;;12.70;99.90;;;;;;5032872;28;20010;-68
2022/07/16 12:26:30;;;;;;;1.80;0.82;;;12.70;99.90;;;;;;5027423;28;20073;-68
2022/07/16 12:28:57;;;;;;;2.65;0.93;;;12.60;99.90;;;;;;5025971;28;20030;-67
2022/07/16 12:31:30;;;;;;;1.92;0.57;;;12.50;99.90;;;;;;5029415;28;20049;-67
2022/07/16 12:33:58;;;;;;;1.75;0.80;;;12.50;99.90;;;;;;5030774;28;20014;-67
2022/07/16 12:36:37;;;;;;;2.80;0.80;;;12.50;99.90;;;;;;5029178;28;20033;-67
2022/07/16 12:39:08;;;;;;;3.15;0.80;;;12.40;99.90;;;;;;5025106;28;20044;-67
2022/07/16 12:41:39;;;;;;;2.53;0.80;;;12.30;99.90;;;;;;5027799;28;20026;-66
2022/07/16 12:44:17;;;;;;;4.82;0.80;;;12.20;99.90;;;;;;5026084;28;20044;-67
2022/07/16 12:46:52;;;;;;;3.13;1.23;;;12.10;99.90;;;;;;5024720;28;20021;-67
2022/07/16 12:49:21;;;;;;;2.15;0.88;;;12.10;99.90;;;;;;5022811;28;20045;-67
2022/07/16 12:51:56;;;;;;;2.35;0.77;;;11.90;99.90;;;;;;5023399;28;20026;-67
2022/07/16 12:54:22;;;;;;;;;;;11.90;99.90;;;;;;5022862;28;20041;-67
2022/07/16 12:59:35;;;;;;;0.90;0.60;;;11.70;99.90;;;;;;5025048;28;20065;-67
2022/07/16 13:02:07;;;;;;;0.95;0.50;;;11.80;99.90;;;;;;5027246;28;20021;-67
2022/07/16 13:04:35;;;;;;;2.58;0.60;;;11.80;99.90;;;;;;5025600;28;20007;-67